KDLN/DLN METAR and TAF weather

Enter ICAO airport designator
Station Type Date Time Source
KDLN METAR 2019/10/15 08:53 UTC NOAA

KDLN 150853Z AUTO 19006KT 10SM CLR M01/M04 A3019 RMK AO2 SLP220 T10111039 50008


Station Type Date Time Source
KDLN Decoded METAR 2019/10/15 08:53 UTC NOAA

DILLON AIRPORT, MT, United States (KDLN) 45-15N 112-33W 1591M
Oct 15, 2019 - 04:53 AM EDT / 2019.10.15 0853 UTC
Wind: from the S (190 degrees) at 7 MPH (6 KT):0
Visibility: 10 mile(s):0
Sky conditions: clear
Temperature: 30.0 F (-1.1 C)
Windchill: 23 F (-5 C):1
Dew Point: 25.0 F (-3.9 C)
Relative Humidity: 81%
Pressure (altimeter): 30.19 in. Hg (1022 hPa)
Pressure tendency: 0.02 inches (0.8 hPa) higher than three hours ago
ob: KDLN 150853Z AUTO 19006KT 10SM CLR M01/M04 A3019 RMK AO2 SLP220 T10111039 50008
cycle: 9

Station Type Date Time Source
KDLN TAF UTC NOAA

Error!

Example: see airport list